Time;durP1;ratioP1;P1;durP2;ratioP2;P2;SDS_P1;SDS_P2;PMS_P1;PMS_P2;Temp;Humidity;BMP_temperature;BMP_pressure;BME280_temperature;BME280_humidity;BME280_pressure;Samples;Min_cycle;Max_cycle;Signal;HPM_P1;HPM_P2
2022/04/01 00:01:42;;;;;;;;;;;;;;;7.05;60.12;99555.78;5025767;28;19929;-77
2022/04/01 00:04:08;;;;;;;;;;;;;;;7.02;60.42;99546.38;5027729;28;20012;-74
2022/04/01 00:06:33;;;;;;;;;;;;;;;6.98;59.88;99549.09;5024631;28;19928;-75
2022/04/01 00:08:58;;;;;;;;;;;;;;;6.96;59.38;99556.03;5010159;28;19921;-77
2022/04/01 00:11:24;;;;;;;;;;;;;;;6.91;60.25;99557.88;5015654;28;20357;-81
2022/04/01 00:13:49;;;;;;;;;;;;;;;7.23;59.44;99549.31;5032586;28;19922;-75
2022/04/01 00:16:16;;;;;;;;;;;;;;;7.03;59.23;99549.81;5023811;28;20332;-80
2022/04/01 00:18:41;;;;;;;;;;;;;;;7.25;59.43;99550.97;5025528;28;19921;-80
2022/04/01 00:21:07;;;;;;;;;;;;;;;7.02;60.39;99561.88;5024914;28;19944;-78
2022/04/01 00:23:32;;;;;;;;;;;;;;;7.09;60.72;99555.69;5024043;28;19927;-79
2022/04/01 00:25:57;;;;;;;;;;;;;;;7.04;60.29;99548.94;5028622;28;20008;-79
2022/04/01 00:28:23;;;;;;;;;;;;;;;7.13;59.54;99556.44;5027554;28;19917;-75
2022/04/01 00:30:48;;;;;;;;;;;;;;;7.31;59.28;99555.13;5034208;28;19957;-75
2022/04/01 00:33:14;;;;;;;;;;;;;;;6.99;59.77;99549.03;5020590;28;19925;-80
2022/04/01 00:35:42;;;;;;;;;;;;;;;7.19;59.83;99547.69;5013105;28;19921;-75
2022/04/01 00:38:08;;;;;;;;;;;;;;;7.12;59.78;99558.19;5023763;28;19921;-78
2022/04/01 00:40:35;;;;;;;;;;;;;;;7.34;59.16;99547.28;5024089;28;19921;-78
2022/04/01 00:43:00;;;;;;;;;;;;;;;7.12;61.09;99547.00;5028326;28;19924;-78
2022/04/01 00:45:26;;;;;;;;;;;;;;;6.62;61.55;99545.69;5047995;28;19989;-80
2022/04/01 00:47:51;;;;;;;;;;;;;;;7.09;59.67;99547.94;5020365;28;20362;-80
2022/04/01 00:50:16;;;;;;;;;;;;;;;7.25;58.93;99547.53;5058983;28;19956;-78
2022/04/01 00:52:44;;;;;;;;;;;;;;;7.07;59.37;99556.59;5030458;28;20364;-80
2022/04/01 00:55:11;;;;;;;;;;;;;;;7.31;58.02;99547.38;5024839;28;19931;-78
2022/04/01 00:57:37;;;;;;;;;;;;;;;7.29;58.72;99549.13;5040065;28;19954;-78
2022/04/01 01:00:06;;;;;;;;;;;;;;;7.16;59.93;99546.03;5038059;28;20349;-77
2022/04/01 01:02:32;;;;;;;;;;;;;;;7.22;59.82;99555.34;5053474;28;19956;-77
2022/04/01 01:04:58;;;;;;;;;;;;;;;7.06;59.10;99550.59;5030979;28;19925;-77
2022/04/01 01:07:23;;;;;;;;;;;;;;;7.06;59.33;99552.31;5039879;28;20455;-77
2022/04/01 01:09:50;;;;;;;;;;;;;;;7.04;58.88;99546.34;5023558;28;19940;-80
2022/04/01 01:12:17;;;;;;;;;;;;;;;7.17;59.18;99547.72;5026535;28;19925;-80
2022/04/01 01:14:44;;;;;;;;;;;;;;;7.11;59.59;99559.06;5024434;28;19925;-80
2022/04/01 01:17:11;;;;;;;;;;;;;;;7.39;59.31;99543.69;5026002;28;20019;-79
2022/04/01 01:19:37;;;;;;;;;;;;;;;7.35;59.17;99546.38;5027833;28;19967;-79
2022/04/01 01:22:02;;;;;;;;;;;;;;;7.03;60.45;99548.09;5027564;28;20918;-77
2022/04/01 01:24:28;;;;;;;;;;;;;;;6.66;62.48;99564.53;5034015;28;19936;-77
2022/04/01 01:26:53;;;;;;;;;;;;;;;6.95;60.71;99554.34;5017417;28;19975;-78
2022/04/01 01:29:25;;;;;;;;;;;;;;;7.07;60.19;99554.03;5011572;28;20596;-78
2022/04/01 01:31:51;;;;;;;;;;;;;;;6.98;60.69;99559.44;5024030;28;19956;-78
2022/04/01 01:34:17;;;;;;;;;;;;;;;7.11;59.64;99550.47;5023164;28;19921;-75
2022/04/01 01:36:42;;;;;;;;;;;;;;;7.02;59.10;99555.84;5025644;28;20381;-74
2022/04/01 01:39:08;;;;;;;;;;;;;;;6.65;62.19;99560.25;5029034;28;19922;-74
2022/04/01 01:41:33;;;;;;;;;;;;;;;7.17;61.19;99554.63;5015084;28;19932;-75
2022/04/01 01:43:59;;;;;;;;;;;;;;;7.00;60.53;99558.50;5034181;28;19921;-75
2022/04/01 01:46:24;;;;;;;;;;;;;;;6.95;60.43;99554.34;5034368;28;19925;-79
2022/04/01 01:48:49;;;;;;;;;;;;;;;7.41;59.83;99556.53;5030012;28;19921;-78
2022/04/01 01:56:44;;;;;;;;;;;;;;;7.19;59.39;99560.59;5036091;28;19987;-80
2022/04/01 01:59:11;;;;;;;;;;;;;;;6.78;61.63;99564.25;5032286;28;20429;-80
2022/04/01 02:01:37;;;;;;;;;;;;;;;6.95;60.88;99560.34;5031941;28;19925;-80
2022/04/01 02:04:03;;;;;;;;;;;;;;;6.91;60.28;99557.88;5027520;28;19932;-80
2022/04/01 02:06:29;;;;;;;;;;;;;;;7.14;59.87;99553.81;5032166;28;19967;-80
2022/04/01 02:08:55;;;;;;;;;;;;;;;7.10;60.78;99553.94;5030060;28;20016;-80
2022/04/01 02:11:21;;;;;;;;;;;;;;;7.18;60.08;99551.16;5039792;28;20019;-80
2022/04/01 02:13:47;;;;;;;;;;;;;;;6.86;62.11;99554.56;5033603;28;20366;-80
2022/04/01 02:16:12;;;;;;;;;;;;;;;7.26;59.66;99551.78;5026961;28;20008;-80
2022/04/01 02:18:38;;;;;;;;;;;;;;;7.38;60.67;99556.63;5031333;28;19921;-80
2022/04/01 02:21:10;;;;;;;;;;;;;;;7.24;60.20;99556.16;5028661;28;19921;-80
2022/04/01 02:23:38;;;;;;;;;;;;;;;7.29;60.56;99549.97;5029430;28;19917;-79
2022/04/01 02:26:04;;;;;;;;;;;;;;;7.36;60.60;99555.81;5026851;28;19913;-77
2022/04/01 02:28:29;;;;;;;;;;;;;;;7.19;62.49;99558.03;5034331;28;19942;-75
2022/04/01 02:30:55;;;;;;;;;;;;;;;7.50;60.33;99549.38;5024014;28;19924;-75
2022/04/01 02:33:20;;;;;;;;;;;;;;;7.14;61.54;99555.53;5020624;28;19933;-75
2022/04/01 02:35:46;;;;;;;;;;;;;;;6.88;62.31;99553.63;5027452;28;19917;-75
2022/04/01 02:38:11;;;;;;;;;;;;;;;7.15;62.05;99557.25;5043007;28;20015;-74
2022/04/01 02:40:36;;;;;;;;;;;;;;;7.02;60.63;99558.44;5029715;28;19929;-75
2022/04/01 02:43:02;;;;;;;;;;;;;;;7.14;60.88;99558.97;5012171;28;19964;-75
2022/04/01 02:45:27;;;;;;;;;;;;;;;7.06;60.17;99557.47;5044090;28;19991;-74
2022/04/01 02:47:52;;;;;;;;;;;;;;;7.12;59.72;99558.19;5023462;28;19921;-77
2022/04/01 02:50:18;;;;;;;;;;;;;;;6.87;60.93;99567.41;5041371;28;20007;-80
2022/04/01 02:52:43;;;;;;;;;;;;;;;7.35;59.79;99564.44;5026732;28;20301;-80
2022/04/01 02:55:09;;;;;;;;;;;;;;;7.08;60.43;99566.03;5028272;28;20019;-80
2022/04/01 02:57:34;;;;;;;;;;;;;;;6.76;60.91;99579.75;5044814;28;19921;-78
2022/04/01 03:00:00;;;;;;;;;;;;;;;7.11;58.82;99569.38;5034691;28;19964;-74
2022/04/01 03:02:26;;;;;;;;;;;;;;;6.87;59.30;99571.75;5025698;28;20551;-74
2022/04/01 03:04:51;;;;;;;;;;;;;;;6.78;59.49;99575.38;5053758;28;20025;-75
2022/04/01 03:07:17;;;;;;;;;;;;;;;6.84;59.78;99585.56;5025309;28;19956;-78
2022/04/01 03:09:42;;;;;;;;;;;;;;;6.62;60.09;99584.41;5030858;28;19956;-77
2022/04/01 03:12:07;;;;;;;;;;;;;;;6.95;59.21;99581.00;5027464;28;19983;-77
2022/04/01 03:14:33;;;;;;;;;;;;;;;6.62;60.32;99591.28;5009114;28;20417;-75
2022/04/01 03:16:58;;;;;;;;;;;;;;;7.18;58.73;99583.00;5025459;28;19918;-80
2022/04/01 03:19:24;;;;;;;;;;;;;;;6.96;59.48;99593.00;5030743;28;19924;-80
2022/04/01 03:21:50;;;;;;;;;;;;;;;6.58;59.33;99593.94;5027272;28;19921;-79
2022/04/01 03:24:16;;;;;;;;;;;;;;;6.74;59.01;99594.44;5020904;28;19927;-78
2022/04/01 03:26:42;;;;;;;;;;;;;;;6.57;59.77;99591.41;5031720;28;19917;-77
2022/04/01 03:29:07;;;;;;;;;;;;;;;6.81;59.87;99598.53;5027901;28;20388;-75
2022/04/01 03:31:34;;;;;;;;;;;;;;;6.80;58.59;99603.75;5059155;28;20004;-75
2022/04/01 03:33:59;;;;;;;;;;;;;;;6.60;59.25;99606.81;5030336;28;20377;-78
2022/04/01 03:36:24;;;;;;;;;;;;;;;6.93;57.91;99607.75;5028343;28;19976;-78
2022/04/01 03:38:50;;;;;;;;;;;;;;;6.75;57.28;99610.78;5027808;28;19929;-78
2022/04/01 03:41:15;;;;;;;;;;;;;;;6.60;58.37;99614.56;5028856;28;19921;-77
2022/04/01 03:43:41;;;;;;;;;;;;;;;6.99;57.91;99612.72;5023968;28;20020;-77
2022/04/01 03:46:08;;;;;;;;;;;;;;;6.75;58.16;99614.19;5026539;28;19933;-78
2022/04/01 03:48:52;;;;;;;;;;;;;;;6.53;58.54;99623.31;5027627;28;19922;-78
2022/04/01 03:51:19;;;;;;;;;;;;;;;6.67;57.73;99616.09;5036297;28;19922;-80
2022/04/01 03:53:52;;;;;;;;;;;;;;;6.85;57.68;99625.13;5019623;28;19921;-80
2022/04/01 03:56:21;;;;;;;;;;;;;;;6.26;59.15;99629.06;5040665;28;19944;-79
2022/04/01 03:58:47;;;;;;;;;;;;;;;6.32;58.68;99628.91;5027141;28;19963;-79
2022/04/01 04:01:13;;;;;;;;;;;;;;;6.39;58.19;99630.50;5044957;28;19964;-79
2022/04/01 04:03:39;;;;;;;;;;;;;;;6.62;58.32;99627.41;5026843;28;19976;-79
2022/04/01 04:06:09;;;;;;;;;;;;;;;6.26;59.23;99636.78;5025396;28;19921;-77
2022/04/01 04:08:36;;;;;;;;;;;;;;;6.38;57.89;99644.25;5029430;28;20468;-77
2022/04/01 04:11:03;;;;;;;;;;;;;;;6.19;58.05;99641.22;5029691;28;19920;-77
2022/04/01 04:13:29;;;;;;;;;;;;;;;6.30;57.82;99638.44;5028295;28;19929;-80
2022/04/01 04:15:57;;;;;;;;;;;;;;;6.53;57.42;99634.50;5013025;28;19943;-75
2022/04/01 04:18:27;;;;;;;;;;;;;;;6.31;57.68;99637.53;5039361;28;19925;-75
2022/04/01 04:20:58;;;;;;;;;;;;;;;6.28;57.90;99646.19;5028348;28;19921;-76
2022/04/01 04:23:24;;;;;;;;;;;;;;;5.93;58.74;99651.22;5060848;28;19928;-80
2022/04/01 04:25:59;;;;;;;;;;;;;;;6.13;58.78;99645.69;5025980;28;19917;-80
2022/04/01 04:28:25;;;;;;;;;;;;;;;6.32;58.28;99649.56;5038351;28;19921;-79
2022/04/01 04:30:52;;;;;;;;;;;;;;;6.37;57.30;99658.03;5039814;28;19958;-80
2022/04/01 04:33:22;;;;;;;;;;;;;;;6.31;57.69;99660.75;5034816;28;20312;-78
2022/04/01 04:35:49;;;;;;;;;;;;;;;6.50;56.66;99659.50;5028713;28;19998;-78
2022/04/01 04:38:16;;;;;;;;;;;;;;;6.45;57.79;99663.91;5028318;28;20294;-77
2022/04/01 04:40:42;;;;;;;;;;;;;;;6.14;57.88;99660.25;5025953;28;19921;-77
2022/04/01 04:43:07;;;;;;;;;;;;;;;6.41;57.18;99664.84;5024048;28;19921;-77
2022/04/01 04:45:33;;;;;;;;;;;;;;;5.97;57.99;99664.03;5028248;28;20079;-77
2022/04/01 04:47:58;;;;;;;;;;;;;;;6.24;56.82;99661.78;5025984;28;19979;-77
2022/04/01 04:50:23;;;;;;;;;;;;;;;6.36;57.01;99664.94;5023371;28;19921;-77
2022/04/01 04:52:50;;;;;;;;;;;;;;;6.24;57.46;99672.09;5028889;28;19931;-77
2022/04/01 04:55:19;;;;;;;;;;;;;;;6.42;57.21;99679.44;5035358;28;19952;-80
2022/04/01 04:57:46;;;;;;;;;;;;;;;6.34;55.90;99677.00;5026431;28;20488;-80
2022/04/01 05:00:13;;;;;;;;;;;;;;;6.38;55.25;99676.06;5008552;28;19983;-80
2022/04/01 05:02:42;;;;;;;;;;;;;;;6.08;56.75;99675.84;5020965;28;19917;-80
2022/04/01 05:05:15;;;;;;;;;;;;;;;5.90;56.87;99693.38;5028106;28;20345;-77
2022/04/01 05:07:46;;;;;;;;;;;;;;;6.26;56.45;99684.06;5034018;28;19921;-77
2022/04/01 05:10:12;;;;;;;;;;;;;;;6.46;55.09;99693.94;5049118;28;20309;-80
2022/04/01 05:13:08;;;;;;;;;;;;;;;6.01;56.57;99701.75;5039880;28;19929;-80
2022/04/01 05:15:36;;;;;;;;;;;;;;;6.35;56.53;99709.66;5020378;28;19928;-78
2022/04/01 05:18:12;;;;;;;;;;;;;;;6.16;56.42;99712.66;5027644;28;19995;-78
2022/04/01 05:20:39;;;;;;;;;;;;;;;6.50;55.41;99711.97;5034899;28;20007;-79
2022/04/01 05:23:12;;;;;;;;;;;;;;;6.27;55.35;99719.28;5030244;28;20285;-77
2022/04/01 05:25:46;;;;;;;;;;;;;;;6.22;54.80;99728.81;5018543;28;20378;-78
2022/04/01 05:28:20;;;;;;;;;;;;;;;6.41;54.56;99729.31;5065888;28;20301;-78
2022/04/01 05:30:45;;;;;;;;;;;;;;;6.26;55.59;99734.78;5030877;28;20389;-74
2022/04/01 05:33:18;;;;;;;;;;;;;;;6.35;56.05;99737.19;5029347;28;19925;-78
2022/04/01 05:35:51;;;;;;;;;;;;;;;6.21;55.67;99742.63;5030299;28;20016;-78
2022/04/01 05:38:17;;;;;;;;;;;;;;;6.34;54.45;99746.63;5025777;28;19914;-78
2022/04/01 05:40:42;;;;;;;;;;;;;;;6.15;54.99;99749.63;5046114;28;20032;-80
2022/04/01 05:43:07;;;;;;;;;;;;;;;6.26;54.86;99752.84;5053064;28;19922;-75
2022/04/01 05:45:33;;;;;;;;;;;;;;;6.30;54.79;99762.22;5038906;28;19936;-74
2022/04/01 05:47:58;;;;;;;;;;;;;;;6.23;55.07;99768.38;5024590;28;19928;-75
2022/04/01 05:50:25;;;;;;;;;;;;;;;6.24;54.89;99770.06;5039762;28;19914;-75
2022/04/01 05:52:51;;;;;;;;;;;;;;;6.04;55.46;99775.59;5019541;28;19925;-77
2022/04/01 05:55:19;;;;;;;;;;;;;;;6.19;55.53;99779.63;5031915;28;19929;-75
2022/04/01 05:57:45;;;;;;;;;;;;;;;5.97;55.05;99780.03;5024173;28;19927;-75
2022/04/01 06:00:12;;;;;;;;;;;;;;;6.18;55.30;99783.09;5039128;28;20353;-80
2022/04/01 06:02:56;;;;;;;;;;;;;;;6.12;54.53;99781.47;5040480;28;19925;-75
2022/04/01 06:05:31;;;;;;;;;;;;;;;6.32;55.13;99788.81;5027713;28;19917;-79
2022/04/01 06:08:16;;;;;;;;;;;;;;;5.97;55.13;99790.34;5028570;28;20042;-79
2022/04/01 06:10:45;;;;;;;;;;;;;;;6.35;53.53;99789.63;5042360;28;19921;-80
2022/04/01 06:13:29;;;;;;;;;;;;;;;6.11;54.66;99794.38;5028961;28;19929;-75
2022/04/01 06:15:54;;;;;;;;;;;;;;;6.37;53.93;99802.47;5040971;28;19982;-74
2022/04/01 06:18:19;;;;;;;;;;;;;;;6.23;54.17;99810.47;5051550;28;19921;-78
2022/04/01 06:20:46;;;;;;;;;;;;;;;6.24;54.28;99812.19;5031304;28;20338;-78
2022/04/01 06:23:16;;;;;;;;;;;;;;;6.29;53.47;99810.38;5034361;28;20012;-74
2022/04/01 06:25:45;;;;;;;;;;;;;;;6.35;53.25;99817.13;5029268;28;20059;-74
2022/04/01 06:28:16;;;;;;;;;;;;;;;6.18;54.50;99821.75;5028415;28;19940;-78
2022/04/01 06:30:43;;;;;;;;;;;;;;;6.18;54.34;99830.34;5015456;28;19921;-80
2022/04/01 06:33:18;;;;;;;;;;;;;;;5.84;53.94;99826.66;5050422;28;19926;-81
2022/04/01 06:35:50;;;;;;;;;;;;;;;6.18;53.44;99832.94;5039185;28;20385;-80
2022/04/01 06:38:23;;;;;;;;;;;;;;;6.46;53.14;99833.25;5025527;28;19953;-78
2022/04/01 06:41:00;;;;;;;;;;;;;;;5.59;55.46;99840.81;5022747;28;19917;-77
2022/04/01 06:43:26;;;;;;;;;;;;;;;5.59;54.53;99848.53;5008789;28;19937;-77
2022/04/01 06:45:51;;;;;;;;;;;;;;;5.81;55.02;99848.16;5026036;28;19957;-77
2022/04/01 06:48:17;;;;;;;;;;;;;;;5.83;54.53;99855.88;5023843;28;19964;-78
2022/04/01 06:50:49;;;;;;;;;;;;;;;6.16;54.10;99851.91;5032195;28;20008;-78
2022/04/01 06:53:15;;;;;;;;;;;;;;;5.94;53.03;99856.56;5029536;28;19971;-78
2022/04/01 06:55:40;;;;;;;;;;;;;;;5.96;53.55;99862.53;5031133;28;20354;-77
2022/04/01 06:58:11;;;;;;;;;;;;;;;6.13;53.18;99864.84;5025381;28;20007;-80
2022/04/01 07:00:43;;;;;;;;;;;;;;;6.28;53.02;99867.97;5051552;28;19940;-77
2022/04/01 07:03:09;;;;;;;;;;;;;;;6.11;54.28;99879.47;5008766;28;19929;-80
2022/04/01 07:05:34;;;;;;;;;;;;;;;5.99;53.26;99880.53;5025766;28;19913;-80
2022/04/01 07:08:00;;;;;;;;;;;;;;;6.23;53.19;99874.94;5027324;28;19956;-77
2022/04/01 07:10:26;;;;;;;;;;;;;;;5.95;53.89;99884.03;5029301;28;19921;-78
2022/04/01 07:12:52;;;;;;;;;;;;;;;6.04;53.28;99887.31;5028021;28;19925;-80
2022/04/01 07:15:17;;;;;;;;;;;;;;;5.74;53.97;99881.81;5027461;28;19935;-80
2022/04/01 07:17:43;;;;;;;;;;;;;;;5.94;53.99;99883.19;5035735;28;19921;-75
2022/04/01 07:20:08;;;;;;;;;;;;;;;5.75;52.79;99886.06;5025885;28;19928;-75
2022/04/01 07:22:36;;;;;;;;;;;;;;;5.97;52.60;99887.44;5036957;28;19956;-77
2022/04/01 07:25:01;;;;;;;;;;;;;;;6.17;52.86;99889.69;5010624;28;20019;-77
2022/04/01 07:27:29;;;;;;;;;;;;;;;6.03;52.70;99898.50;5042073;28;20009;-77
2022/04/01 07:29:54;;;;;;;;;;;;;;;5.81;53.54;99902.28;5013029;28;19940;-80
2022/04/01 07:32:41;;;;;;;;;;;;;;;5.97;52.15;99903.75;5038128;28;19921;-80
2022/04/01 07:35:08;;;;;;;;;;;;;;;6.03;53.28;99901.09;5035056;28;19943;-77
2022/04/01 07:37:34;;;;;;;;;;;;;;;5.91;53.37;99905.59;5025348;28;19974;-75
2022/04/01 07:40:04;;;;;;;;;;;;;;;6.04;53.37;99915.66;5041120;28;20324;-80
2022/04/01 07:42:29;;;;;;;;;;;;;;;6.11;53.08;99915.56;5023252;28;20398;-78
2022/04/01 07:44:55;;;;;;;;;;;;;;;5.90;53.67;99920.19;5029660;28;19932;-77
2022/04/01 07:47:21;;;;;;;;;;;;;;;5.76;53.34;99923.84;5010968;28;19921;-75
2022/04/01 07:49:47;;;;;;;;;;;;;;;6.15;54.79;99927.53;5013392;28;19921;-79
2022/04/01 07:52:13;;;;;;;;;;;;;;;6.26;53.53;99925.63;5059171;28;19929;-78
2022/04/01 07:54:42;;;;;;;;;;;;;;;5.95;54.57;99938.19;5028402;28;19929;-78
2022/04/01 07:57:12;;;;;;;;;;;;;;;6.28;52.34;99937.59;5042445;28;20579;-77
2022/04/01 07:59:38;;;;;;;;;;;;;;;5.70;53.20;99934.25;5030801;28;19926;-77
2022/04/01 08:02:05;;;;;;;;;;;;;;;5.91;52.85;99945.09;5022179;28;19925;-75
2022/04/01 08:04:31;;;;;;;;;;;;;;;5.71;53.78;99944.50;5020164;28;19929;-80
2022/04/01 08:06:57;;;;;;;;;;;;;;;6.05;52.90;99950.03;5026809;28;19944;-80
2022/04/01 08:09:26;;;;;;;;;;;;;;;6.11;51.86;99944.78;5038006;28;19936;-80
2022/04/01 08:11:52;;;;;;;;;;;;;;;5.80;52.94;99959.84;5029576;28;19929;-80
2022/04/01 08:14:18;;;;;;;;;;;;;;;6.16;51.94;99961.03;5030045;28;19927;-80
2022/04/01 08:16:44;;;;;;;;;;;;;;;5.80;51.60;99964.19;5031033;28;19920;-75
2022/04/01 08:19:09;;;;;;;;;;;;;;;5.99;51.99;99963.88;5045290;28;19947;-75
2022/04/01 08:21:35;;;;;;;;;;;;;;;5.81;52.36;99964.13;5027560;28;20064;-75
2022/04/01 08:24:00;;;;;;;;;;;;;;;6.06;51.15;99967.22;5040768;28;19922;-78
2022/04/01 08:26:26;;;;;;;;;;;;;;;5.93;50.50;99971.69;5038917;28;19921;-79
2022/04/01 08:28:51;;;;;;;;;;;;;;;6.08;51.94;99969.75;5032666;28;19921;-80
2022/04/01 08:31:16;;;;;;;;;;;;;;;5.93;51.46;99978.56;5016513;28;19948;-80
2022/04/01 08:33:42;;;;;;;;;;;;;;;6.04;51.17;99981.84;5023885;28;20056;-78
2022/04/01 08:36:08;;;;;;;;;;;;;;;5.82;51.80;99985.63;5036879;28;20417;-75
2022/04/01 08:38:33;;;;;;;;;;;;;;;5.96;51.98;99984.53;5027446;28;19956;-75
2022/04/01 08:40:58;;;;;;;;;;;;;;;5.72;51.29;99991.75;5032878;28;19917;-75
2022/04/01 08:43:28;;;;;;;;;;;;;;;6.16;51.70;99991.97;5027041;28;19925;-75
2022/04/01 08:45:55;;;;;;;;;;;;;;;6.03;51.04;99983.59;5028088;28;20108;-80
2022/04/01 08:48:20;;;;;;;;;;;;;;;6.07;50.35;99989.53;5053426;28;20016;-80
2022/04/01 08:50:46;;;;;;;;;;;;;;;5.84;50.68;99996.75;5023667;28;20024;-78
2022/04/01 08:53:12;;;;;;;;;;;;;;;5.37;51.62;100010.25;5029431;28;20298;-75
2022/04/01 08:55:38;;;;;;;;;;;;;;;5.83;50.54;100006.19;5021448;28;19929;-77
2022/04/01 08:58:03;;;;;;;;;;;;;;;6.13;49.62;100012.63;5027198;28;19982;-78
2022/04/01 09:00:29;;;;;;;;;;;;;;;5.96;50.07;100010.31;5008594;28;20437;-75
2022/04/01 09:03:12;;;;;;;;;;;;;;;6.28;50.96;100014.13;5059419;28;19928;-75
2022/04/01 09:05:43;;;;;;;;;;;;;;;5.65;50.52;100010.78;5025931;28;19913;-77
2022/04/01 09:08:08;;;;;;;;;;;;;;;5.84;51.15;100018.22;5029058;28;20687;-77
2022/04/01 09:10:49;;;;;;;;;;;;;;;6.47;48.88;100020.72;5026166;28;19921;-77
2022/04/01 09:13:14;;;;;;;;;;;;;;;6.05;50.15;100024.78;5027579;28;20424;-77
2022/04/01 09:15:41;;;;;;;;;;;;;;;5.95;50.46;100028.41;5025708;28;19925;-78
2022/04/01 09:18:06;;;;;;;;;;;;;;;6.29;49.15;100028.75;5027648;28;19928;-80
2022/04/01 09:20:50;;;;;;;;;;;;;;;6.12;50.20;100030.72;5027139;28;20321;-78
2022/04/01 09:23:23;;;;;;;;;;;;;;;6.18;49.96;100028.91;5026642;28;19917;-74
2022/04/01 09:25:49;;;;;;;;;;;;;;;6.07;49.09;100030.78;5020954;28;19949;-78
2022/04/01 09:28:25;;;;;;;;;;;;;;;5.79;49.03;100037.19;5038873;28;19928;-74
2022/04/01 09:31:10;;;;;;;;;;;;;;;6.18;49.42;100031.50;5025233;28;19921;-77
2022/04/01 09:33:45;;;;;;;;;;;;;;;6.29;50.46;100039.06;5020122;28;19935;-76
2022/04/01 09:36:12;;;;;;;;;;;;;;;6.38;49.34;100041.50;5042149;28;19921;-78
2022/04/01 09:38:37;;;;;;;;;;;;;;;6.11;49.81;100042.75;5022369;28;19921;-75
2022/04/01 09:41:04;;;;;;;;;;;;;;;6.43;49.04;100042.25;5026603;28;20266;-80
2022/04/01 09:43:30;;;;;;;;;;;;;;;6.52;48.46;100037.00;5023412;28;19921;-80
2022/04/01 09:45:58;;;;;;;;;;;;;;;6.39;50.24;100043.22;5009124;28;19928;-79
2022/04/01 09:48:23;;;;;;;;;;;;;;;6.13;49.51;100045.34;5022460;28;19925;-80
2022/04/01 09:50:56;;;;;;;;;;;;;;;6.02;51.79;100043.75;5037058;28;19924;-78
2022/04/01 09:53:22;;;;;;;;;;;;;;;5.74;49.84;100046.72;5029180;28;19925;-78
2022/04/01 09:55:48;;;;;;;;;;;;;;;5.60;50.96;100049.44;5022888;28;19925;-78
2022/04/01 09:58:15;;;;;;;;;;;;;;;5.73;51.03;100045.88;5040265;28;19940;-77
2022/04/01 10:00:41;;;;;;;;;;;;;;;5.34;51.79;100059.22;5026757;28;20453;-79
2022/04/01 10:03:07;;;;;;;;;;;;;;;5.76;51.51;100058.72;5026529;28;20024;-78
2022/04/01 10:05:34;;;;;;;;;;;;;;;5.65;49.89;100060.56;5028936;28;19936;-75
2022/04/01 10:08:01;;;;;;;;;;;;;;;5.60;51.58;100062.34;5045447;28;19917;-76
2022/04/01 10:10:27;;;;;;;;;;;;;;;6.40;50.97;100061.22;5042691;28;19959;-77
2022/04/01 10:12:55;;;;;;;;;;;;;;;6.21;51.44;100064.13;5039379;28;19949;-77
2022/04/01 10:15:24;;;;;;;;;;;;;;;6.50;50.05;100067.13;5031356;28;19955;-74
2022/04/01 10:17:51;;;;;;;;;;;;;;;5.59;50.22;100068.38;5025599;28;19920;-74
2022/04/01 10:20:18;;;;;;;;;;;;;;;6.08;50.40;100081.47;5052141;28;19947;-74
2022/04/01 10:22:45;;;;;;;;;;;;;;;6.19;50.01;100081.34;5034756;28;20382;-78
2022/04/01 10:25:20;;;;;;;;;;;;;;;6.26;49.74;100076.06;5039254;28;19932;-78
2022/04/01 10:27:50;;;;;;;;;;;;;;;6.00;49.16;100081.59;5039833;28;19928;-76
2022/04/01 10:30:17;;;;;;;;;;;;;;;5.66;49.73;100085.44;5029407;28;19948;-74
2022/04/01 10:32:43;;;;;;;;;;;;;;;5.94;49.97;100089.41;5032973;28;19972;-74
2022/04/01 10:35:21;;;;;;;;;;;;;;;6.36;47.94;100080.22;5024646;28;20382;-74
2022/04/01 10:37:46;;;;;;;;;;;;;;;6.00;49.16;100094.50;5032180;28;19925;-74
2022/04/01 10:40:18;;;;;;;;;;;;;;;5.27;49.99;100096.19;5037468;28;19925;-75
2022/04/01 10:42:45;;;;;;;;;;;;;;;5.53;50.98;100101.09;5031975;28;19921;-78
2022/04/01 10:45:13;;;;;;;;;;;;;;;5.31;51.65;100109.03;5026066;28;20425;-77
2022/04/01 10:53:33;;;;;;;;;;;;;;;5.58;51.01;100113.03;5022540;28;19936;-80
2022/04/01 10:56:17;;;;;;;;;;;;;;;5.23;50.86;100120.28;5039841;28;19929;-80
2022/04/01 10:59:00;;;;;;;;;;;;;;;5.34;49.95;100116.72;5040840;28;19928;-79
2022/04/01 11:01:25;;;;;;;;;;;;;;;5.57;51.16;100119.03;5031973;28;19925;-79
2022/04/01 11:03:52;;;;;;;;;;;;;;;5.64;49.41;100122.41;5026023;28;19927;-79
2022/04/01 11:06:24;;;;;;;;;;;;;;;5.66;50.13;100108.63;5030692;28;19964;-74
2022/04/01 11:08:52;;;;;;;;;;;;;;;5.88;50.04;100128.16;5024422;28;19922;-75
2022/04/01 11:11:18;;;;;;;;;;;;;;;5.96;48.27;100116.00;5030513;28;19917;-79
2022/04/01 11:14:00;;;;;;;;;;;;;;;5.73;49.28;100124.91;5026509;28;19983;-78
2022/04/01 11:16:25;;;;;;;;;;;;;;;5.67;48.73;100123.25;5039740;28;19940;-79
2022/04/01 11:19:10;;;;;;;;;;;;;;;5.31;48.91;100136.50;5030220;28;20301;-79
2022/04/01 11:21:35;;;;;;;;;;;;;;;5.63;49.81;100124.13;5040657;28;20694;-79
2022/04/01 11:24:20;;;;;;;;;;;;;;;5.84;48.84;100123.03;5043785;28;19947;-78
2022/04/01 11:26:45;;;;;;;;;;;;;;;5.67;48.39;100119.81;5046868;28;19921;-78
2022/04/01 11:29:37;;;;;;;;;;;;;;;5.85;49.01;100132.47;5032421;28;20329;-79
2022/04/01 11:32:04;;;;;;;;;;;;;;;6.17;47.01;100130.34;5033372;28;19929;-78
2022/04/01 11:34:29;;;;;;;;;;;;;;;6.07;47.80;100133.91;5024419;28;19921;-79
2022/04/01 11:36:59;;;;;;;;;;;;;;;6.13;47.53;100136.41;5037050;28;19927;-78
2022/04/01 11:39:24;;;;;;;;;;;;;;;6.15;46.51;100133.81;5026446;28;20373;-79
2022/04/01 11:41:54;;;;;;;;;;;;;;;5.62;48.09;100129.31;5029134;28;19990;-75
2022/04/01 11:44:20;;;;;;;;;;;;;;;6.24;47.00;100139.72;5028067;28;19925;-81
2022/04/01 11:46:49;;;;;;;;;;;;;;;5.68;47.88;100152.44;5011680;28;19976;-75
2022/04/01 11:49:16;;;;;;;;;;;;;;;6.20;47.64;100139.75;5024181;28;19996;-77
2022/04/01 11:51:41;;;;;;;;;;;;;;;6.22;46.90;100143.16;5033801;28;20486;-77
2022/04/01 11:54:08;;;;;;;;;;;;;;;5.83;47.26;100137.63;5028389;28;19921;-77
2022/04/01 11:56:34;;;;;;;;;;;;;;;6.03;48.22;100146.00;5027616;28;19921;-76
2022/04/01 11:59:04;;;;;;;;;;;;;;;6.40;47.34;100140.34;5027273;28;19935;-76
2022/04/01 12:01:30;;;;;;;;;;;;;;;6.22;47.41;100156.06;5025802;28;20297;-76
2022/04/01 12:04:02;;;;;;;;;;;;;;;6.29;45.90;100150.81;5019164;28;19928;-80
2022/04/01 12:09:11;;;;;;;;;;;;;;;5.90;47.09;100156.47;5029018;28;19965;-80
2022/04/01 12:11:45;;;;;;;;;;;;;;;6.30;46.74;100149.97;5010745;28;19972;-80
2022/04/01 12:14:11;;;;;;;;;;;;;;;6.29;46.84;100153.41;5028855;28;19923;-80
2022/04/01 12:16:43;;;;;;;;;;;;;;;6.12;48.37;100154.50;5041097;28;19921;-78
2022/04/01 12:19:16;;;;;;;;;;;;;;;6.30;46.98;100147.38;5031007;28;19921;-80
2022/04/01 12:21:42;;;;;;;;;;;;;;;6.38;47.59;100155.00;5032093;28;19921;-80
2022/04/01 12:24:07;;;;;;;;;;;;;;;6.30;47.17;100162.84;5028049;28;19929;-79
2022/04/01 12:26:33;;;;;;;;;;;;;;;5.91;47.64;100161.63;5026428;28;20550;-78
2022/04/01 12:28:58;;;;;;;;;;;;;;;5.36;49.04;100170.78;5043568;28;19921;-80
2022/04/01 12:31:25;;;;;;;;;;;;;;;5.78;48.09;100172.06;5050812;28;19928;-78
2022/04/01 12:33:52;;;;;;;;;;;;;;;5.94;47.83;100161.59;5025991;28;19925;-78
2022/04/01 12:36:31;;;;;;;;;;;;;;;6.28;46.72;100167.16;5040557;28;19928;-74
2022/04/01 12:39:02;;;;;;;;;;;;;;;5.90;48.06;100179.66;5030444;28;19917;-74
2022/04/01 12:41:28;;;;;;;;;;;;;;;5.93;47.03;100170.19;5027418;28;19925;-74
2022/04/01 12:43:53;;;;;;;;;;;;;;;5.48;47.67;100184.41;5021163;28;19929;-74
2022/04/01 12:46:19;;;;;;;;;;;;;;;6.04;47.19;100176.06;5026409;28;19921;-80
2022/04/01 12:48:45;;;;;;;;;;;;;;;6.16;47.23;100182.78;5039830;28;19921;-75
2022/04/01 12:51:31;;;;;;;;;;;;;;;5.87;46.93;100179.69;5041265;28;19948;-75
2022/04/01 12:53:59;;;;;;;;;;;;;;;6.19;47.14;100177.59;5036145;28;20006;-75
2022/04/01 12:56:26;;;;;;;;;;;;;;;6.10;45.96;100174.28;5027121;28;19963;-81
2022/04/01 12:58:53;;;;;;;;;;;;;;;5.67;48.51;100186.81;5031700;28;19917;-79
2022/04/01 13:01:28;;;;;;;;;;;;;;;5.98;47.64;100175.25;5024546;28;19956;-74
2022/04/01 13:03:54;;;;;;;;;;;;;;;5.81;48.23;100190.94;5023194;28;20661;-75
2022/04/01 13:06:23;;;;;;;;;;;;;;;6.42;46.86;100180.75;5025388;28;19955;-75
2022/04/01 13:08:56;;;;;;;;;;;;;;;6.44;45.67;100181.56;5026893;28;19928;-75
2022/04/01 13:11:21;;;;;;;;;;;;;;;5.90;46.86;100184.81;5037521;28;19995;-75